sensor_id;sensor_type;location;lat;lon;timestamp;temperature;humidity
15906;DHT22;8051;50.820;4.884;2022-10-23T00:01:46;11.90;99.90
15906;DHT22;8051;50.820;4.884;2022-10-23T00:04:14;11.90;99.90
15906;DHT22;8051;50.820;4.884;2022-10-23T00:06:42;11.90;99.90
15906;DHT22;8051;50.820;4.884;2022-10-23T00:09:11;12.00;99.90
15906;DHT22;8051;50.820;4.884;2022-10-23T00:11:38;12.00;99.90
15906;DHT22;8051;50.820;4.884;2022-10-23T00:14:07;12.00;99.90
15906;DHT22;8051;50.820;4.884;2022-10-23T00:16:35;12.00;99.90
15906;DHT22;8051;50.820;4.884;2022-10-23T00:19:02;12.00;99.90
15906;DHT22;8051;50.820;4.884;2022-10-23T00:21:30;12.00;99.90
15906;DHT22;8051;50.820;4.884;2022-10-23T00:23:57;12.00;99.90
15906;DHT22;8051;50.820;4.884;2022-10-23T00:26:24;12.00;99.90
15906;DHT22;8051;50.820;4.884;2022-10-23T00:28:52;12.10;99.90
15906;DHT22;8051;50.820;4.884;2022-10-23T00:31:20;12.10;99.90
15906;DHT22;8051;50.820;4.884;2022-10-23T00:33:50;12.00;99.90
15906;DHT22;8051;50.820;4.884;2022-10-23T00:36:19;12.10;99.90
15906;DHT22;8051;50.820;4.884;2022-10-23T00:38:47;12.00;99.90
15906;DHT22;8051;50.820;4.884;2022-10-23T00:41:17;12.00;99.90
15906;DHT22;8051;50.820;4.884;2022-10-23T00:44:09;12.00;99.90
15906;DHT22;8051;50.820;4.884;2022-10-23T00:46:37;12.00;99.90
15906;DHT22;8051;50.820;4.884;2022-10-23T00:49:06;12.00;99.90
15906;DHT22;8051;50.820;4.884;2022-10-23T00:51:37;12.00;99.90
15906;DHT22;8051;50.820;4.884;2022-10-23T00:54:06;12.00;99.90
15906;DHT22;8051;50.820;4.884;2022-10-23T00:56:37;12.00;99.90
15906;DHT22;8051;50.820;4.884;2022-10-23T00:59:04;11.90;99.90
15906;DHT22;8051;50.820;4.884;2022-10-23T01:01:35;11.90;99.90
15906;DHT22;8051;50.820;4.884;2022-10-23T01:04:03;11.90;99.90
15906;DHT22;8051;50.820;4.884;2022-10-23T01:06:35;11.90;99.90
15906;DHT22;8051;50.820;4.884;2022-10-23T01:09:09;11.90;99.90
15906;DHT22;8051;50.820;4.884;2022-10-23T01:11:41;11.90;99.90
15906;DHT22;8051;50.820;4.884;2022-10-23T01:14:16;11.90;99.90
15906;DHT22;8051;50.820;4.884;2022-10-23T01:16:50;11.90;99.90
15906;DHT22;8051;50.820;4.884;2022-10-23T01:19:24;11.90;99.90
15906;DHT22;8051;50.820;4.884;2022-10-23T01:21:59;11.90;99.90
15906;DHT22;8051;50.820;4.884;2022-10-23T01:24:44;12.00;99.90
15906;DHT22;8051;50.820;4.884;2022-10-23T01:27:20;12.00;99.90
15906;DHT22;8051;50.820;4.884;2022-10-23T01:29:53;12.00;99.90
15906;DHT22;8051;50.820;4.884;2022-10-23T01:32:27;12.10;99.90
15906;DHT22;8051;50.820;4.884;2022-10-23T01:35:01;12.10;99.90
15906;DHT22;8051;50.820;4.884;2022-10-23T01:37:42;12.10;99.90
15906;DHT22;8051;50.820;4.884;2022-10-23T01:40:14;12.10;99.90
15906;DHT22;8051;50.820;4.884;2022-10-23T01:42:49;12.20;99.90
15906;DHT22;8051;50.820;4.884;2022-10-23T01:45:20;12.30;99.90
15906;DHT22;8051;50.820;4.884;2022-10-23T01:47:51;12.30;99.90
15906;DHT22;8051;50.820;4.884;2022-10-23T01:50:20;12.30;99.90
15906;DHT22;8051;50.820;4.884;2022-10-23T01:52:49;12.30;99.90
15906;DHT22;8051;50.820;4.884;2022-10-23T01:55:16;12.40;99.90
15906;DHT22;8051;50.820;4.884;2022-10-23T01:57:45;12.40;99.90
15906;DHT22;8051;50.820;4.884;2022-10-23T02:00:18;12.50;99.90
15906;DHT22;8051;50.820;4.884;2022-10-23T02:02:46;12.50;99.90
15906;DHT22;8051;50.820;4.884;2022-10-23T02:05:16;12.60;99.90
15906;DHT22;8051;50.820;4.884;2022-10-23T02:07:44;12.60;99.90
15906;DHT22;8051;50.820;4.884;2022-10-23T02:10:12;12.70;99.90
15906;DHT22;8051;50.820;4.884;2022-10-23T02:12:49;12.70;99.90
15906;DHT22;8051;50.820;4.884;2022-10-23T02:15:23;12.80;99.90
15906;DHT22;8051;50.820;4.884;2022-10-23T02:18:01;12.80;99.90
15906;DHT22;8051;50.820;4.884;2022-10-23T02:20:35;12.80;99.90
15906;DHT22;8051;50.820;4.884;2022-10-23T02:23:13;12.80;99.90
15906;DHT22;8051;50.820;4.884;2022-10-23T02:25:47;12.90;99.90
15906;DHT22;8051;50.820;4.884;2022-10-23T02:28:21;12.90;99.90
15906;DHT22;8051;50.820;4.884;2022-10-23T02:30:50;12.90;99.90
15906;DHT22;8051;50.820;4.884;2022-10-23T02:33:17;13.00;99.90
15906;DHT22;8051;50.820;4.884;2022-10-23T02:35:45;13.00;99.90
15906;DHT22;8051;50.820;4.884;2022-10-23T02:38:34;13.00;99.90
15906;DHT22;8051;50.820;4.884;2022-10-23T02:41:16;13.00;99.90
15906;DHT22;8051;50.820;4.884;2022-10-23T02:43:53;12.90;99.90
15906;DHT22;8051;50.820;4.884;2022-10-23T02:46:27;13.00;99.90
15906;DHT22;8051;50.820;4.884;2022-10-23T02:49:01;13.00;99.90
15906;DHT22;8051;50.820;4.884;2022-10-23T02:51:32;13.00;99.90
15906;DHT22;8051;50.820;4.884;2022-10-23T02:54:05;13.00;99.90
15906;DHT22;8051;50.820;4.884;2022-10-23T02:56:40;13.00;99.90
15906;DHT22;8051;50.820;4.884;2022-10-23T02:59:14;13.00;99.90
15906;DHT22;8051;50.820;4.884;2022-10-23T03:01:48;13.00;99.90
15906;DHT22;8051;50.820;4.884;2022-10-23T03:04:20;12.90;99.90
15906;DHT22;8051;50.820;4.884;2022-10-23T03:06:49;13.00;99.90
15906;DHT22;8051;50.820;4.884;2022-10-23T03:09:17;13.00;99.90
15906;DHT22;8051;50.820;4.884;2022-10-23T03:11:44;13.10;99.90
15906;DHT22;8051;50.820;4.884;2022-10-23T03:14:13;13.10;99.90
15906;DHT22;8051;50.820;4.884;2022-10-23T03:16:40;13.10;99.90
15906;DHT22;8051;50.820;4.884;2022-10-23T03:19:06;13.10;99.90
15906;DHT22;8051;50.820;4.884;2022-10-23T03:21:33;13.10;99.90
15906;DHT22;8051;50.820;4.884;2022-10-23T03:24:00;13.20;99.90
15906;DHT22;8051;50.820;4.884;2022-10-23T03:26:27;13.20;99.90
15906;DHT22;8051;50.820;4.884;2022-10-23T03:28:54;13.20;99.90
15906;DHT22;8051;50.820;4.884;2022-10-23T03:31:22;13.20;99.90
15906;DHT22;8051;50.820;4.884;2022-10-23T03:33:49;13.20;99.90
15906;DHT22;8051;50.820;4.884;2022-10-23T03:36:16;13.20;99.90
15906;DHT22;8051;50.820;4.884;2022-10-23T03:38:43;13.20;99.90
15906;DHT22;8051;50.820;4.884;2022-10-23T03:41:09;13.10;99.90
15906;DHT22;8051;50.820;4.884;2022-10-23T03:43:36;13.10;99.90
15906;DHT22;8051;50.820;4.884;2022-10-23T03:46:03;13.10;99.90
15906;DHT22;8051;50.820;4.884;2022-10-23T03:48:35;13.20;99.90
15906;DHT22;8051;50.820;4.884;2022-10-23T03:51:02;13.20;99.90
15906;DHT22;8051;50.820;4.884;2022-10-23T03:53:29;13.20;99.90
15906;DHT22;8051;50.820;4.884;2022-10-23T03:55:56;13.20;99.90
15906;DHT22;8051;50.820;4.884;2022-10-23T03:58:23;13.20;99.90
15906;DHT22;8051;50.820;4.884;2022-10-23T04:00:50;13.20;99.90
15906;DHT22;8051;50.820;4.884;2022-10-23T04:03:17;13.20;99.90
15906;DHT22;8051;50.820;4.884;2022-10-23T04:05:45;13.20;99.90
15906;DHT22;8051;50.820;4.884;2022-10-23T04:08:12;13.20;99.90
15906;DHT22;8051;50.820;4.884;2022-10-23T04:10:39;13.20;99.90
15906;DHT22;8051;50.820;4.884;2022-10-23T04:13:07;13.20;99.90
15906;DHT22;8051;50.820;4.884;2022-10-23T04:15:34;13.20;99.90
15906;DHT22;8051;50.820;4.884;2022-10-23T04:18:01;13.20;99.90
15906;DHT22;8051;50.820;4.884;2022-10-23T04:20:28;13.30;99.90
15906;DHT22;8051;50.820;4.884;2022-10-23T04:22:56;13.20;99.90
15906;DHT22;8051;50.820;4.884;2022-10-23T04:25:23;13.20;99.90
15906;DHT22;8051;50.820;4.884;2022-10-23T04:27:50;13.10;99.90
15906;DHT22;8051;50.820;4.884;2022-10-23T04:30:16;13.20;99.90
15906;DHT22;8051;50.820;4.884;2022-10-23T04:32:43;13.20;99.90
15906;DHT22;8051;50.820;4.884;2022-10-23T04:35:10;13.20;99.90
15906;DHT22;8051;50.820;4.884;2022-10-23T04:37:37;13.20;99.90
15906;DHT22;8051;50.820;4.884;2022-10-23T04:40:07;13.20;99.90
15906;DHT22;8051;50.820;4.884;2022-10-23T04:42:34;13.20;99.90
15906;DHT22;8051;50.820;4.884;2022-10-23T04:45:01;13.30;99.90
15906;DHT22;8051;50.820;4.884;2022-10-23T04:47:28;13.30;99.90
15906;DHT22;8051;50.820;4.884;2022-10-23T04:49:55;13.30;99.90
15906;DHT22;8051;50.820;4.884;2022-10-23T04:52:22;13.30;99.90
15906;DHT22;8051;50.820;4.884;2022-10-23T04:54:49;13.30;99.90
15906;DHT22;8051;50.820;4.884;2022-10-23T04:57:17;13.30;99.90
15906;DHT22;8051;50.820;4.884;2022-10-23T04:59:44;13.30;99.90
15906;DHT22;8051;50.820;4.884;2022-10-23T05:02:11;13.30;99.90
15906;DHT22;8051;50.820;4.884;2022-10-23T05:04:38;13.30;99.90
15906;DHT22;8051;50.820;4.884;2022-10-23T05:07:04;13.30;99.90
15906;DHT22;8051;50.820;4.884;2022-10-23T05:09:31;13.30;99.90
15906;DHT22;8051;50.820;4.884;2022-10-23T05:11:58;13.30;99.90
15906;DHT22;8051;50.820;4.884;2022-10-23T05:14:26;13.30;99.90
15906;DHT22;8051;50.820;4.884;2022-10-23T05:16:56;13.30;99.90
15906;DHT22;8051;50.820;4.884;2022-10-23T05:19:27;13.30;99.90
15906;DHT22;8051;50.820;4.884;2022-10-23T05:21:58;13.30;99.90
15906;DHT22;8051;50.820;4.884;2022-10-23T05:24:25;13.30;99.90
15906;DHT22;8051;50.820;4.884;2022-10-23T05:26:52;13.30;99.90
15906;DHT22;8051;50.820;4.884;2022-10-23T05:29:19;13.30;99.90
15906;DHT22;8051;50.820;4.884;2022-10-23T05:31:50;13.40;99.90
15906;DHT22;8051;50.820;4.884;2022-10-23T05:34:19;13.40;99.90
15906;DHT22;8051;50.820;4.884;2022-10-23T05:36:48;13.50;99.90
15906;DHT22;8051;50.820;4.884;2022-10-23T05:39:15;13.50;99.90
15906;DHT22;8051;50.820;4.884;2022-10-23T05:41:42;13.50;99.90
15906;DHT22;8051;50.820;4.884;2022-10-23T05:44:09;13.50;99.90
15906;DHT22;8051;50.820;4.884;2022-10-23T05:46:39;13.50;99.90
15906;DHT22;8051;50.820;4.884;2022-10-23T05:49:08;13.50;99.90
15906;DHT22;8051;50.820;4.884;2022-10-23T05:51:35;13.50;99.90
15906;DHT22;8051;50.820;4.884;2022-10-23T05:54:03;13.50;99.90
15906;DHT22;8051;50.820;4.884;2022-10-23T05:56:32;13.50;99.90
15906;DHT22;8051;50.820;4.884;2022-10-23T05:58:59;13.50;99.90
15906;DHT22;8051;50.820;4.884;2022-10-23T06:01:27;13.50;99.90
15906;DHT22;8051;50.820;4.884;2022-10-23T06:03:54;13.50;99.90
15906;DHT22;8051;50.820;4.884;2022-10-23T06:06:22;13.40;99.90
15906;DHT22;8051;50.820;4.884;2022-10-23T06:08:49;13.40;99.90
15906;DHT22;8051;50.820;4.884;2022-10-23T06:11:16;13.40;99.90
15906;DHT22;8051;50.820;4.884;2022-10-23T06:13:44;13.40;99.90
15906;DHT22;8051;50.820;4.884;2022-10-23T06:16:14;13.40;99.90
15906;DHT22;8051;50.820;4.884;2022-10-23T06:18:43;13.50;99.90
15906;DHT22;8051;50.820;4.884;2022-10-23T06:21:11;13.40;99.90
15906;DHT22;8051;50.820;4.884;2022-10-23T06:23:40;13.40;99.90
15906;DHT22;8051;50.820;4.884;2022-10-23T06:26:09;13.40;99.90
15906;DHT22;8051;50.820;4.884;2022-10-23T06:28:37;13.30;99.90
15906;DHT22;8051;50.820;4.884;2022-10-23T06:31:05;13.30;99.90
15906;DHT22;8051;50.820;4.884;2022-10-23T06:33:32;13.30;99.90
15906;DHT22;8051;50.820;4.884;2022-10-23T06:35:59;13.30;99.90
15906;DHT22;8051;50.820;4.884;2022-10-23T06:38:26;13.30;99.90
15906;DHT22;8051;50.820;4.884;2022-10-23T06:40:56;13.30;99.90
15906;DHT22;8051;50.820;4.884;2022-10-23T06:43:23;13.30;99.90
15906;DHT22;8051;50.820;4.884;2022-10-23T06:45:50;13.30;99.90
15906;DHT22;8051;50.820;4.884;2022-10-23T06:48:17;13.40;99.90
15906;DHT22;8051;50.820;4.884;2022-10-23T06:50:44;13.40;99.90
15906;DHT22;8051;50.820;4.884;2022-10-23T06:53:11;13.40;99.90
15906;DHT22;8051;50.820;4.884;2022-10-23T06:55:38;13.40;99.90
15906;DHT22;8051;50.820;4.884;2022-10-23T06:58:06;13.50;99.90
15906;DHT22;8051;50.820;4.884;2022-10-23T07:00:36;13.50;99.90
15906;DHT22;8051;50.820;4.884;2022-10-23T07:03:03;13.60;99.90
15906;DHT22;8051;50.820;4.884;2022-10-23T07:05:31;13.70;99.90
15906;DHT22;8051;50.820;4.884;2022-10-23T07:07:58;13.80;99.90
15906;DHT22;8051;50.820;4.884;2022-10-23T07:10:25;13.80;99.90
15906;DHT22;8051;50.820;4.884;2022-10-23T07:12:52;13.80;99.90
15906;DHT22;8051;50.820;4.884;2022-10-23T07:15:26;13.90;99.90
15906;DHT22;8051;50.820;4.884;2022-10-23T07:17:53;14.00;99.90
15906;DHT22;8051;50.820;4.884;2022-10-23T07:20:21;14.00;99.90
15906;DHT22;8051;50.820;4.884;2022-10-23T07:22:50;14.00;99.90
15906;DHT22;8051;50.820;4.884;2022-10-23T07:25:17;14.00;99.90
15906;DHT22;8051;50.820;4.884;2022-10-23T07:27:44;14.00;99.90
15906;DHT22;8051;50.820;4.884;2022-10-23T07:30:12;14.10;99.90
15906;DHT22;8051;50.820;4.884;2022-10-23T07:32:41;14.10;99.90
15906;DHT22;8051;50.820;4.884;2022-10-23T07:35:08;14.10;99.90
15906;DHT22;8051;50.820;4.884;2022-10-23T07:37:36;14.20;99.90
15906;DHT22;8051;50.820;4.884;2022-10-23T07:40:03;14.30;99.90
15906;DHT22;8051;50.820;4.884;2022-10-23T07:42:30;14.40;99.90
15906;DHT22;8051;50.820;4.884;2022-10-23T07:44:57;14.40;99.90
15906;DHT22;8051;50.820;4.884;2022-10-23T07:47:24;14.50;99.90
15906;DHT22;8051;50.820;4.884;2022-10-23T07:49:52;14.50;99.90
15906;DHT22;8051;50.820;4.884;2022-10-23T07:52:19;14.60;99.90
15906;DHT22;8051;50.820;4.884;2022-10-23T07:54:49;14.60;99.90
15906;DHT22;8051;50.820;4.884;2022-10-23T07:57:16;14.70;99.90
15906;DHT22;8051;50.820;4.884;2022-10-23T07:59:43;14.70;99.90
15906;DHT22;8051;50.820;4.884;2022-10-23T08:02:11;14.70;99.90
15906;DHT22;8051;50.820;4.884;2022-10-23T08:04:38;14.80;99.90
15906;DHT22;8051;50.820;4.884;2022-10-23T08:07:06;14.80;99.90
15906;DHT22;8051;50.820;4.884;2022-10-23T08:09:33;14.90;99.90
15906;DHT22;8051;50.820;4.884;2022-10-23T08:12:02;14.90;99.90
15906;DHT22;8051;50.820;4.884;2022-10-23T08:14:29;15.00;99.90
15906;DHT22;8051;50.820;4.884;2022-10-23T08:16:56;15.10;99.90
15906;DHT22;8051;50.820;4.884;2022-10-23T08:19:23;15.20;99.90
15906;DHT22;8051;50.820;4.884;2022-10-23T08:21:50;15.30;99.90
15906;DHT22;8051;50.820;4.884;2022-10-23T08:24:20;15.40;99.90
15906;DHT22;8051;50.820;4.884;2022-10-23T08:26:48;15.50;99.90
15906;DHT22;8051;50.820;4.884;2022-10-23T08:29:15;15.50;99.90
15906;DHT22;8051;50.820;4.884;2022-10-23T08:31:42;15.60;99.90
15906;DHT22;8051;50.820;4.884;2022-10-23T08:34:09;15.70;99.90
